createdAt,value
2023-03-17T00:01:54.806Z,11.64
2023-03-17T00:04:24.702Z,11.65
2023-03-17T00:06:53.910Z,11.70
2023-03-17T00:09:22.569Z,11.73
2023-03-17T00:11:50.792Z,11.73
2023-03-17T00:14:19.931Z,11.71
2023-03-17T00:16:51.255Z,11.70
2023-03-17T00:19:32.349Z,11.71
2023-03-17T00:22:01.593Z,11.73
2023-03-17T00:24:31.189Z,11.74
2023-03-17T00:26:59.682Z,11.75
2023-03-17T00:29:28.027Z,11.75
2023-03-17T00:31:57.809Z,11.76
2023-03-17T00:34:25.664Z,11.76
2023-03-17T00:36:53.554Z,11.78
2023-03-17T00:39:25.496Z,11.79
2023-03-17T00:41:55.601Z,11.80
2023-03-17T00:44:24.257Z,11.81
2023-03-17T00:46:54.512Z,11.81
2023-03-17T00:49:25.761Z,11.83
2023-03-17T00:51:54.242Z,11.81
2023-03-17T00:54:22.901Z,11.80
2023-03-17T00:56:52.561Z,11.78
2023-03-17T00:59:42.351Z,11.79
2023-03-17T01:02:13.245Z,11.76
2023-03-17T01:04:45.593Z,11.74
2023-03-17T01:07:15.732Z,11.67
2023-03-17T01:09:44.032Z,11.63
2023-03-17T01:12:15.460Z,11.59
2023-03-17T01:14:43.708Z,11.57
2023-03-17T01:17:17.072Z,11.55
2023-03-17T01:19:47.149Z,11.54
2023-03-17T01:22:15.143Z,11.54
2023-03-17T01:24:43.246Z,11.54
2023-03-17T01:27:12.350Z,11.54
2023-03-17T01:29:40.122Z,11.53
2023-03-17T01:32:07.971Z,11.51
2023-03-17T01:34:35.835Z,11.47
2023-03-17T01:37:03.784Z,11.46
2023-03-17T01:39:31.578Z,11.46
2023-03-17T01:42:01.481Z,11.48
2023-03-17T01:44:30.798Z,11.49
2023-03-17T01:46:58.757Z,11.51
2023-03-17T01:49:38.880Z,11.53
2023-03-17T01:52:10.591Z,11.57
2023-03-17T01:54:53.169Z,11.60
2023-03-17T01:57:37.144Z,11.62
2023-03-17T02:00:19.727Z,11.64
2023-03-17T02:02:51.687Z,11.65
2023-03-17T02:05:29.857Z,11.66
2023-03-17T02:07:57.840Z,11.67
2023-03-17T02:10:30.526Z,11.68
2023-03-17T02:13:03.909Z,11.72
2023-03-17T02:15:44.784Z,11.73
2023-03-17T02:18:14.135Z,11.74
2023-03-17T02:20:42.410Z,11.74
2023-03-17T02:23:10.728Z,11.76
2023-03-17T02:25:44.933Z,11.76
2023-03-17T02:28:19.016Z,11.76
2023-03-17T02:30:49.923Z,11.76
2023-03-17T02:33:19.110Z,11.77
2023-03-17T02:35:47.870Z,11.77
2023-03-17T02:38:17.433Z,11.77
2023-03-17T02:40:45.245Z,11.78
2023-03-17T02:43:13.188Z,11.79
2023-03-17T02:45:41.731Z,11.79
2023-03-17T02:48:12.942Z,11.78
2023-03-17T02:50:40.768Z,11.77
2023-03-17T02:53:09.268Z,11.78
2023-03-17T02:55:37.128Z,11.81
2023-03-17T02:58:05.020Z,11.85
2023-03-17T03:00:33.939Z,11.88
2023-03-17T03:03:02.493Z,11.92
2023-03-17T03:05:30.454Z,11.90
2023-03-17T03:07:58.560Z,11.85
2023-03-17T03:10:27.072Z,11.83
2023-03-17T03:12:54.881Z,11.85
2023-03-17T03:15:23.153Z,11.81
2023-03-17T03:17:51.702Z,11.77
2023-03-17T03:20:20.925Z,11.74
2023-03-17T03:22:48.695Z,11.74
2023-03-17T03:25:17.104Z,11.77
2023-03-17T03:27:45.153Z,11.79
2023-03-17T03:30:13.331Z,11.81
2023-03-17T03:32:41.365Z,11.86
2023-03-17T03:35:10.533Z,11.92
2023-03-17T03:37:38.357Z,11.90
2023-03-17T03:40:07.531Z,11.88
2023-03-17T03:42:35.448Z,11.92
2023-03-17T03:45:03.647Z,11.95
2023-03-17T03:47:31.449Z,11.97
2023-03-17T03:49:59.245Z,11.99
2023-03-17T03:52:27.401Z,11.94
2023-03-17T03:54:55.198Z,11.89
2023-03-17T03:57:23.009Z,11.87
2023-03-17T03:59:51.017Z,11.94
2023-03-17T04:02:18.998Z,11.99
2023-03-17T04:04:47.473Z,11.92
2023-03-17T04:07:15.691Z,11.86
2023-03-17T04:09:43.549Z,11.84
2023-03-17T04:12:11.897Z,11.84
2023-03-17T04:14:39.617Z,11.80
2023-03-17T04:17:07.706Z,11.75
2023-03-17T04:19:35.622Z,11.68
2023-03-17T04:22:03.998Z,11.63
2023-03-17T04:24:31.865Z,11.59
2023-03-17T04:26:59.827Z,11.52
2023-03-17T04:29:28.713Z,11.47
2023-03-17T04:31:56.518Z,11.50
2023-03-17T04:34:24.369Z,11.57
2023-03-17T04:36:52.233Z,11.52
2023-03-17T04:39:20.717Z,11.51
2023-03-17T04:41:48.495Z,11.42
2023-03-17T04:44:16.305Z,11.39
2023-03-17T04:46:44.315Z,11.38
2023-03-17T04:49:12.999Z,11.38
2023-03-17T04:51:41.199Z,11.47
2023-03-17T04:54:08.985Z,11.46
2023-03-17T04:56:37.090Z,11.45
2023-03-17T04:59:05.064Z,11.50
2023-03-17T05:01:33.084Z,11.58
2023-03-17T05:04:01.108Z,11.61
2023-03-17T05:06:29.074Z,11.56
2023-03-17T05:08:57.006Z,11.53
2023-03-17T05:11:24.884Z,11.49
2023-03-17T05:13:52.677Z,11.51
2023-03-17T05:16:20.700Z,11.48
2023-03-17T05:18:48.621Z,11.49
2023-03-17T05:21:16.403Z,11.56
2023-03-17T05:23:44.535Z,11.59
2023-03-17T05:26:13.074Z,11.52
2023-03-17T05:28:40.829Z,11.43
2023-03-17T05:31:10.985Z,11.36
2023-03-17T05:33:39.323Z,11.27
2023-03-17T05:36:08.068Z,11.23
2023-03-17T05:38:36.015Z,11.25
2023-03-17T05:41:04.160Z,11.25
2023-03-17T05:43:32.157Z,11.23
2023-03-17T05:46:00.373Z,11.24
2023-03-17T05:48:28.165Z,11.26
2023-03-17T05:50:56.031Z,11.22
2023-03-17T05:53:23.882Z,11.19
2023-03-17T05:55:53.040Z,11.19
2023-03-17T05:58:21.105Z,11.22
2023-03-17T06:00:48.961Z,11.19
2023-03-17T06:03:17.123Z,11.19
2023-03-17T06:05:45.911Z,11.18
2023-03-17T06:08:13.944Z,11.21
2023-03-17T06:10:43.112Z,11.34
2023-03-17T06:13:11.687Z,11.33
2023-03-17T06:15:39.777Z,11.36
2023-03-17T06:18:07.979Z,11.38
2023-03-17T06:20:36.647Z,11.40
2023-03-17T06:23:05.772Z,11.40
2023-03-17T06:25:35.089Z,11.43
2023-03-17T06:28:05.511Z,11.49
2023-03-17T06:30:35.247Z,11.47
2023-03-17T06:33:04.490Z,11.49
2023-03-17T06:35:33.980Z,11.50
2023-03-17T06:38:02.397Z,11.49
2023-03-17T06:40:30.551Z,11.46
2023-03-17T06:42:58.577Z,11.41
2023-03-17T06:45:26.871Z,11.37
2023-03-17T06:47:55.368Z,11.40
2023-03-17T06:50:23.235Z,11.50
2023-03-17T06:52:52.009Z,11.55
2023-03-17T06:55:21.271Z,11.52
2023-03-17T06:57:51.080Z,11.55
2023-03-17T07:00:21.116Z,11.56
2023-03-17T07:02:49.681Z,11.61
2023-03-17T07:05:18.020Z,11.60
2023-03-17T07:07:46.307Z,11.66
2023-03-17T07:10:15.748Z,11.64
2023-03-17T07:12:43.849Z,11.69
2023-03-17T07:15:12.527Z,11.73
2023-03-17T07:17:40.459Z,11.73
2023-03-17T07:20:10.927Z,11.74
2023-03-17T07:22:38.751Z,11.73
2023-03-17T07:25:08.136Z,11.74
2023-03-17T07:27:36.105Z,11.81
2023-03-17T07:30:05.819Z,11.84
2023-03-17T07:32:35.339Z,11.89
2023-03-17T07:35:04.871Z,11.92
2023-03-17T07:37:32.892Z,11.96
2023-03-17T07:40:01.064Z,12.10
2023-03-17T07:42:29.025Z,12.20
2023-03-17T07:44:56.977Z,12.26
2023-03-17T07:47:24.796Z,12.30
2023-03-17T07:49:53.372Z,12.35
2023-03-17T07:52:21.311Z,12.38
2023-03-17T07:54:49.268Z,12.38
2023-03-17T07:57:17.308Z,12.39
2023-03-17T07:59:45.595Z,12.38
2023-03-17T08:02:16.936Z,12.40
2023-03-17T08:04:45.625Z,12.47
2023-03-17T08:07:14.679Z,12.57
2023-03-17T08:09:42.858Z,12.62
2023-03-17T08:12:11.648Z,12.69
2023-03-17T08:14:39.589Z,12.75
2023-03-17T08:17:08.272Z,12.87
2023-03-17T08:19:36.499Z,12.91
2023-03-17T08:22:04.640Z,12.98
2023-03-17T08:24:33.089Z,13.11
2023-03-17T08:27:01.639Z,13.23
2023-03-17T08:29:30.424Z,13.27
2023-03-17T08:31:58.377Z,13.33
2023-03-17T08:34:26.975Z,13.28
2023-03-17T08:36:54.931Z,13.25
2023-03-17T08:39:22.947Z,13.28
2023-03-17T08:41:51.035Z,13.26
2023-03-17T08:44:19.651Z,13.21
2023-03-17T08:46:49.524Z,13.14
2023-03-17T08:49:17.838Z,13.05
2023-03-17T08:51:46.206Z,12.96
2023-03-17T08:54:14.064Z,12.85
2023-03-17T08:56:42.540Z,12.73
2023-03-17T08:59:10.977Z,12.65
2023-03-17T09:01:40.203Z,12.63
2023-03-17T09:04:08.959Z,12.65
2023-03-17T09:06:38.809Z,12.66
2023-03-17T09:09:07.656Z,12.72
2023-03-17T09:11:35.485Z,12.76
2023-03-17T09:14:03.662Z,12.81
2023-03-17T09:16:34.411Z,12.83
2023-03-17T09:19:03.786Z,12.83
2023-03-17T09:21:32.009Z,12.79
2023-03-17T09:24:02.402Z,12.71
2023-03-17T09:26:30.791Z,12.70
2023-03-17T09:28:58.586Z,12.67
2023-03-17T09:31:26.784Z,12.63
2023-03-17T09:33:54.815Z,12.59
2023-03-17T09:36:23.702Z,12.57
2023-03-17T09:38:51.807Z,12.59
2023-03-17T09:41:47.051Z,12.56
2023-03-17T09:44:43.921Z,12.55
2023-03-17T09:47:28.614Z,12.56
2023-03-17T09:50:01.177Z,12.53
2023-03-17T09:52:34.512Z,12.54
2023-03-17T09:55:08.582Z,12.56
2023-03-17T09:57:40.454Z,12.58
2023-03-17T10:00:27.383Z,12.67
2023-03-17T10:02:57.883Z,12.78
2023-03-17T10:05:33.193Z,12.81
2023-03-17T10:08:31.098Z,12.85
2023-03-17T10:11:10.994Z,12.97
2023-03-17T10:13:51.768Z,13.01
2023-03-17T10:16:28.288Z,12.94
2023-03-17T10:19:11.615Z,12.89
2023-03-17T10:21:54.066Z,12.87
2023-03-17T10:24:23.352Z,12.86
2023-03-17T10:26:57.515Z,12.84
2023-03-17T10:29:25.487Z,12.84
2023-03-17T10:31:58.463Z,12.88
2023-03-17T10:34:34.288Z,12.94
2023-03-17T10:37:23.213Z,12.98
2023-03-17T10:39:56.146Z,12.98
2023-03-17T10:42:33.323Z,12.98
2023-03-17T10:45:13.272Z,12.98
2023-03-17T10:47:48.170Z,12.97
2023-03-17T10:50:34.418Z,12.94
2023-03-17T10:53:29.229Z,12.96
2023-03-17T10:56:08.400Z,12.96
2023-03-17T10:58:44.670Z,13.00
2023-03-17T11:01:30.192Z,13.09
2023-03-17T11:04:02.525Z,13.18
2023-03-17T11:06:42.355Z,13.23
2023-03-17T11:09:18.418Z,13.23
2023-03-17T11:11:58.972Z,13.18
2023-03-17T11:14:30.457Z,13.15
2023-03-17T11:17:01.496Z,13.14
2023-03-17T11:19:50.897Z,13.16
2023-03-17T11:22:35.096Z,13.18
2023-03-17T11:25:15.319Z,13.23
2023-03-17T11:27:55.957Z,13.18
2023-03-17T11:30:50.413Z,13.11
2023-03-17T11:34:13.270Z,13.02
2023-03-17T11:37:10.166Z,12.94
2023-03-17T11:40:12.308Z,12.86
2023-03-17T11:42:42.958Z,12.88
2023-03-17T11:45:44.091Z,12.86
2023-03-17T11:48:27.898Z,12.82
2023-03-17T11:51:06.673Z,12.84
2023-03-17T11:53:58.601Z,12.84
2023-03-17T11:56:47.895Z,12.83
2023-03-17T11:59:41.958Z,12.83
2023-03-17T12:02:31.545Z,12.86
2023-03-17T12:05:09.895Z,12.94
2023-03-17T12:07:51.361Z,12.97
2023-03-17T12:10:24.403Z,13.07
2023-03-17T12:13:07.344Z,13.16
2023-03-17T12:15:50.906Z,13.20
2023-03-17T12:18:33.160Z,13.20
2023-03-17T12:21:14.131Z,13.23
2023-03-17T12:24:15.122Z,13.26
2023-03-17T12:27:05.082Z,13.37
2023-03-17T12:29:54.869Z,13.36
2023-03-17T12:32:42.201Z,13.41
2023-03-17T12:35:34.209Z,13.49
2023-03-17T12:38:13.743Z,13.59
2023-03-17T12:41:26.552Z,13.60
2023-03-17T12:44:00.552Z,13.57
2023-03-17T12:46:56.393Z,13.46
2023-03-17T12:49:39.009Z,13.35
2023-03-17T12:52:53.952Z,13.32
2023-03-17T12:55:27.351Z,13.22
2023-03-17T12:58:04.648Z,13.13
2023-03-17T13:00:49.105Z,13.17
2023-03-17T13:03:28.574Z,13.26
2023-03-17T13:06:17.204Z,13.36
2023-03-17T13:08:45.032Z,13.44
2023-03-17T13:11:47.208Z,13.65
2023-03-17T13:14:37.717Z,13.93
2023-03-17T13:17:19.725Z,14.01
2023-03-17T13:20:10.311Z,14.03
2023-03-17T13:22:42.456Z,14.10
2023-03-17T13:25:49.840Z,14.31
2023-03-17T13:28:41.189Z,14.50
2023-03-17T13:31:31.278Z,14.64
2023-03-17T13:34:15.228Z,14.81
2023-03-17T13:36:58.029Z,14.91
2023-03-17T13:40:07.971Z,14.86
2023-03-17T13:43:06.926Z,14.78
2023-03-17T13:45:41.413Z,14.80
2023-03-17T13:48:33.675Z,14.94
2023-03-17T13:51:25.646Z,15.08
2023-03-17T13:54:08.705Z,15.15
2023-03-17T13:56:36.685Z,15.07
2023-03-17T13:59:13.091Z,15.09
2023-03-17T14:02:20.430Z,15.11
2023-03-17T14:05:26.918Z,15.22
2023-03-17T14:07:59.548Z,15.22
2023-03-17T14:10:31.540Z,15.09
2023-03-17T14:13:20.007Z,14.98
2023-03-17T14:15:58.336Z,14.91
2023-03-17T14:18:38.312Z,14.89
2023-03-17T14:21:21.425Z,15.07
2023-03-17T14:23:54.889Z,15.36
2023-03-17T14:26:26.723Z,15.49
2023-03-17T14:28:55.762Z,15.48
2023-03-17T14:31:27.364Z,15.64
2023-03-17T14:34:00.439Z,15.80
2023-03-17T14:36:33.288Z,15.92
2023-03-17T14:39:01.085Z,16.01
2023-03-17T14:41:30.720Z,15.95
2023-03-17T14:44:01.763Z,15.91
2023-03-17T14:46:40.307Z,15.80
2023-03-17T14:49:21.321Z,15.74
2023-03-17T14:51:53.452Z,15.72
2023-03-17T14:54:31.491Z,15.77
2023-03-17T14:57:08.280Z,16.00
2023-03-17T14:59:40.509Z,16.14
2023-03-17T15:02:22.758Z,16.22
2023-03-17T15:05:38.357Z,16.25
2023-03-17T15:08:36.511Z,16.33
2023-03-17T15:11:07.125Z,16.42
2023-03-17T15:13:37.883Z,16.58
2023-03-17T15:16:35.486Z,16.62
2023-03-17T15:19:14.814Z,16.62
2023-03-17T15:21:43.393Z,16.48
2023-03-17T15:24:41.596Z,16.21
2023-03-17T15:27:18.588Z,15.94
2023-03-17T15:29:47.419Z,15.93
2023-03-17T15:32:21.823Z,15.94
2023-03-17T15:34:52.460Z,15.99
2023-03-17T15:37:34.221Z,16.14
2023-03-17T15:40:05.461Z,16.06
2023-03-17T15:42:37.641Z,15.96
2023-03-17T15:45:07.843Z,15.95
2023-03-17T15:47:40.747Z,15.89
2023-03-17T15:50:16.602Z,15.87
2023-03-17T15:52:45.621Z,15.94
2023-03-17T15:55:31.694Z,16.03
2023-03-17T15:58:00.371Z,16.12
2023-03-17T16:00:30.284Z,16.08
2023-03-17T16:03:04.118Z,15.95
2023-03-17T16:05:36.031Z,15.89
2023-03-17T16:08:04.964Z,15.86
2023-03-17T16:10:33.886Z,15.71
2023-03-17T16:13:01.805Z,15.55
2023-03-17T16:15:36.426Z,15.43
2023-03-17T16:18:14.118Z,15.40
2023-03-17T16:20:47.739Z,15.36
2023-03-17T16:23:23.344Z,15.29
2023-03-17T16:25:52.659Z,15.24
2023-03-17T16:28:30.932Z,15.22
2023-03-17T16:31:01.897Z,15.27
2023-03-17T16:33:40.950Z,15.31
2023-03-17T16:36:16.527Z,15.22
2023-03-17T16:38:45.469Z,15.08
2023-03-17T16:41:27.819Z,14.96
2023-03-17T16:44:02.559Z,14.86
2023-03-17T16:46:35.350Z,14.79
2023-03-17T16:49:05.504Z,14.71
2023-03-17T16:51:33.354Z,14.64
2023-03-17T16:54:01.184Z,14.63
2023-03-17T16:56:29.941Z,14.69
2023-03-17T16:58:57.863Z,14.76
2023-03-17T17:01:28.735Z,14.75
2023-03-17T17:03:57.069Z,14.69
2023-03-17T17:06:25.021Z,14.66
2023-03-17T17:08:53.194Z,14.64
2023-03-17T17:11:21.494Z,14.64
2023-03-17T17:13:49.930Z,14.66
2023-03-17T17:16:31.053Z,14.67
2023-03-17T17:18:59.926Z,14.69
2023-03-17T17:21:28.391Z,14.70
2023-03-17T17:23:56.781Z,14.64
2023-03-17T17:26:24.645Z,14.57
2023-03-17T17:28:52.591Z,14.50
2023-03-17T17:31:20.635Z,14.40
2023-03-17T17:33:48.709Z,14.29
2023-03-17T17:36:17.859Z,14.13
2023-03-17T17:38:45.983Z,14.00
2023-03-17T17:41:14.620Z,13.79
2023-03-17T17:43:42.534Z,13.60
2023-03-17T17:46:22.581Z,13.48
2023-03-17T17:48:50.882Z,13.35
2023-03-17T17:51:18.788Z,13.23
2023-03-17T17:53:46.616Z,13.13
2023-03-17T17:56:17.744Z,13.02
2023-03-17T17:58:46.540Z,12.94
2023-03-17T18:01:19.613Z,12.85
2023-03-17T18:03:48.259Z,12.72
2023-03-17T18:06:17.905Z,12.60
2023-03-17T18:08:45.999Z,12.55
2023-03-17T18:11:13.865Z,12.52
2023-03-17T18:13:41.706Z,12.48
2023-03-17T18:16:19.330Z,12.40
2023-03-17T18:18:47.321Z,12.28
2023-03-17T18:21:15.957Z,12.21
2023-03-17T18:23:47.302Z,12.16
2023-03-17T18:26:17.810Z,12.08
2023-03-17T18:28:45.917Z,12.00
2023-03-17T18:31:22.353Z,11.94
2023-03-17T18:33:57.448Z,11.87
2023-03-17T18:36:25.572Z,11.81
2023-03-17T18:38:53.878Z,11.76
2023-03-17T18:41:21.956Z,11.73
2023-03-17T18:43:50.570Z,11.64
2023-03-17T18:46:18.684Z,11.61
2023-03-17T18:48:46.712Z,11.53
2023-03-17T18:51:14.696Z,11.50
2023-03-17T18:53:42.826Z,11.48
2023-03-17T18:56:10.792Z,11.48
2023-03-17T18:58:38.667Z,11.52
2023-03-17T19:01:06.726Z,11.52
2023-03-17T19:03:35.390Z,11.52
2023-03-17T19:06:14.029Z,11.46
2023-03-17T19:08:42.892Z,11.43
2023-03-17T19:11:13.964Z,11.45
2023-03-17T19:13:42.416Z,11.36
2023-03-17T19:16:10.628Z,11.30
2023-03-17T19:18:41.910Z,11.32
2023-03-17T19:21:11.383Z,11.31
2023-03-17T19:23:41.413Z,11.21
2023-03-17T19:26:10.288Z,11.13
2023-03-17T19:28:38.105Z,11.11
2023-03-17T19:31:06.268Z,11.13
2023-03-17T19:33:34.315Z,11.08
2023-03-17T19:36:09.600Z,11.05
2023-03-17T19:38:38.275Z,10.97
2023-03-17T19:41:06.667Z,10.90
2023-03-17T19:43:40.825Z,10.86
2023-03-17T19:46:12.402Z,10.81
2023-03-17T19:48:40.753Z,10.75
2023-03-17T19:51:09.384Z,10.73
2023-03-17T19:53:37.662Z,10.74
2023-03-17T19:56:07.241Z,10.73
2023-03-17T19:58:35.331Z,10.80
2023-03-17T20:01:05.453Z,10.83
2023-03-17T20:03:33.995Z,10.83
2023-03-17T20:06:06.079Z,10.84
2023-03-17T20:08:34.160Z,10.85
2023-03-17T20:11:02.856Z,10.85
2023-03-17T20:13:30.768Z,10.82
2023-03-17T20:15:58.706Z,10.73
2023-03-17T20:18:26.595Z,10.70
2023-03-17T20:20:54.934Z,10.65
2023-03-17T20:23:23.586Z,10.61
2023-03-17T20:25:53.298Z,10.52
2023-03-17T20:28:21.787Z,10.48
2023-03-17T20:30:50.298Z,10.54
2023-03-17T20:33:18.258Z,10.57
2023-03-17T20:35:47.333Z,10.55
2023-03-17T20:38:16.054Z,10.56
2023-03-17T20:40:43.935Z,10.58
2023-03-17T20:43:12.055Z,10.69
2023-03-17T20:45:41.453Z,10.76
2023-03-17T20:48:11.151Z,10.80
2023-03-17T20:50:40.084Z,10.78
2023-03-17T20:53:08.686Z,10.80
2023-03-17T20:55:37.505Z,10.79
2023-03-17T20:58:05.314Z,10.84
2023-03-17T21:00:33.696Z,10.83
2023-03-17T21:03:02.184Z,10.84
2023-03-17T21:05:32.370Z,10.85
2023-03-17T21:08:00.412Z,10.88
2023-03-17T21:10:28.412Z,10.92
2023-03-17T21:12:56.274Z,10.92
2023-03-17T21:15:24.835Z,10.92
2023-03-17T21:17:53.743Z,10.87
2023-03-17T21:20:21.718Z,10.87
2023-03-17T21:22:49.897Z,10.90
2023-03-17T21:25:17.966Z,10.93
2023-03-17T21:27:46.087Z,10.96
2023-03-17T21:30:14.933Z,11.01
2023-03-17T21:32:42.965Z,11.03
2023-03-17T21:35:11.791Z,11.04
2023-03-17T21:37:39.604Z,11.05
2023-03-17T21:40:09.318Z,11.06
2023-03-17T21:42:37.107Z,11.07
2023-03-17T21:45:06.020Z,11.12
2023-03-17T21:47:36.212Z,11.15
2023-03-17T21:50:05.343Z,11.18
2023-03-17T21:52:33.311Z,11.22
2023-03-17T21:55:01.314Z,11.22
2023-03-17T21:57:29.824Z,11.18
2023-03-17T21:59:57.695Z,11.14
2023-03-17T22:02:25.722Z,11.12
2023-03-17T22:04:53.678Z,11.08
2023-03-17T22:07:21.658Z,11.01
2023-03-17T22:09:53.638Z,10.97
2023-03-17T22:12:21.480Z,10.97
2023-03-17T22:14:49.444Z,10.96
2023-03-17T22:17:17.473Z,10.95
2023-03-17T22:19:45.385Z,10.93
2023-03-17T22:22:13.193Z,10.94
2023-03-17T22:24:41.680Z,10.94
2023-03-17T22:27:09.697Z,10.92
2023-03-17T22:29:38.066Z,10.88
2023-03-17T22:32:06.862Z,10.86
2023-03-17T22:34:36.742Z,10.87
2023-03-17T22:37:05.701Z,10.88
2023-03-17T22:39:34.651Z,10.89
2023-03-17T22:42:02.590Z,10.86
2023-03-17T22:44:30.780Z,10.86
2023-03-17T22:46:58.646Z,10.86
2023-03-17T22:49:26.513Z,10.80
2023-03-17T22:51:54.280Z,10.73
2023-03-17T22:54:22.296Z,10.66
2023-03-17T22:56:50.197Z,10.64
2023-03-17T22:59:18.011Z,10.58
2023-03-17T23:01:45.871Z,10.52
2023-03-17T23:04:14.140Z,10.52
2023-03-17T23:06:42.361Z,10.54
2023-03-17T23:09:10.298Z,10.53
2023-03-17T23:11:38.248Z,10.50
2023-03-17T23:14:06.295Z,10.44
2023-03-17T23:16:34.300Z,10.43
2023-03-17T23:19:02.725Z,10.47
2023-03-17T23:21:38.095Z,10.47
2023-03-17T23:24:08.680Z,10.47
2023-03-17T23:26:37.154Z,10.45
2023-03-17T23:29:08.400Z,10.44
2023-03-17T23:31:37.149Z,10.39
2023-03-17T23:34:06.668Z,10.33
2023-03-17T23:36:39.979Z,10.31
2023-03-17T23:39:08.852Z,10.33
2023-03-17T23:41:37.330Z,10.35
2023-03-17T23:44:05.639Z,10.35
2023-03-17T23:46:33.563Z,10.33
2023-03-17T23:49:01.699Z,10.29
2023-03-17T23:51:29.493Z,10.30
2023-03-17T23:53:58.329Z,10.28
2023-03-17T23:56:26.276Z,10.26
2023-03-17T23:58:54.768Z,10.26
